createdAt,value
2018-12-24T00:00:56.520Z,71.40
2018-12-24T00:06:33.002Z,79.83
2018-12-24T00:09:43.104Z,76.00
2018-12-24T00:12:15.627Z,67.50
2018-12-24T00:14:48.034Z,69.00
2018-12-24T00:17:39.328Z,68.80
2018-12-24T00:20:11.648Z,76.27
2018-12-24T00:22:43.964Z,81.83
2018-12-24T00:28:32.215Z,70.40
2018-12-24T00:33:49.729Z,64.07
2018-12-24T00:36:22.786Z,72.43
2018-12-24T00:38:55.182Z,78.23
2018-12-24T00:41:27.435Z,71.87
2018-12-24T00:44:00.072Z,64.70
2018-12-24T00:46:51.739Z,64.27
2018-12-24T00:49:43.511Z,66.33
2018-12-24T00:58:21.929Z,60.13
2018-12-24T01:03:59.534Z,62.37
2018-12-24T01:06:31.916Z,66.27
2018-12-24T01:09:06.052Z,64.47
2018-12-24T01:11:47.860Z,72.27
2018-12-24T01:14:55.924Z,63.57
2018-12-24T01:18:01.137Z,60.00
2018-12-24T01:20:52.836Z,57.57
2018-12-24T01:23:44.518Z,60.00
2018-12-24T01:26:36.241Z,54.33
2018-12-24T01:29:27.962Z,56.60
2018-12-24T01:32:19.637Z,53.90
2018-12-24T01:38:08.072Z,55.43
2018-12-24T01:41:00.433Z,55.57
2018-12-24T01:49:19.771Z,52.33
2018-12-24T01:51:52.105Z,52.77
2018-12-24T01:54:24.751Z,50.40
2018-12-24T01:56:57.062Z,53.27
2018-12-24T01:59:29.372Z,56.60
2018-12-24T02:02:01.735Z,54.33
2018-12-24T02:04:34.114Z,55.37
2018-12-24T02:07:06.495Z,55.87
2018-12-24T02:09:39.181Z,53.10
2018-12-24T02:12:30.894Z,50.53
2018-12-24T02:15:03.218Z,50.50
2018-12-24T02:17:35.545Z,49.23
2018-12-24T02:20:08.069Z,55.23
2018-12-24T02:22:40.703Z,47.77
2018-12-24T02:25:15.414Z,44.67
2018-12-24T02:34:31.283Z,42.00
2018-12-24T02:40:06.332Z,43.60
2018-12-24T02:42:38.735Z,41.60
2018-12-24T02:45:11.007Z,48.13
2018-12-24T02:48:02.701Z,44.47
2018-12-24T02:50:34.961Z,44.73
2018-12-24T02:53:07.310Z,46.93
2018-12-24T02:58:35.176Z,49.40
2018-12-24T03:01:26.870Z,47.27
2018-12-24T03:04:20.575Z,45.00
2018-12-24T03:06:55.934Z,47.70
2018-12-24T03:09:28.266Z,46.07
2018-12-24T03:12:19.959Z,44.03
2018-12-24T03:15:11.639Z,43.50
2018-12-24T03:17:44.081Z,43.27
2018-12-24T03:20:16.393Z,40.83
2018-12-24T03:22:48.701Z,40.80
2018-12-24T03:25:21.013Z,40.50
2018-12-24T03:27:53.332Z,43.47
2018-12-24T03:33:29.634Z,44.30
2018-12-24T03:36:01.989Z,39.30
2018-12-24T03:38:36.771Z,39.27
2018-12-24T03:41:09.093Z,41.00
2018-12-24T03:43:42.057Z,43.63
2018-12-24T03:46:14.325Z,39.37
2018-12-24T03:48:57.960Z,46.63
2018-12-24T03:51:30.236Z,45.63
2018-12-24T03:57:07.080Z,46.07
2018-12-24T03:59:39.403Z,42.40
2018-12-24T04:05:22.178Z,39.53
2018-12-24T04:07:54.416Z,43.57
2018-12-24T04:10:26.758Z,44.43
2018-12-24T04:12:59.016Z,45.33
2018-12-24T04:15:50.340Z,46.73
2018-12-24T04:18:41.395Z,44.50
2018-12-24T04:21:33.177Z,46.43
2018-12-24T04:24:05.490Z,42.10
2018-12-24T04:26:37.789Z,44.37
2018-12-24T04:29:10.118Z,44.97
2018-12-24T04:31:42.380Z,45.53
2018-12-24T04:34:14.671Z,46.70
2018-12-24T04:40:10.184Z,43.57
2018-12-24T04:42:42.759Z,40.37
2018-12-24T04:45:34.587Z,41.70
2018-12-24T04:48:06.889Z,40.00
2018-12-24T04:50:39.159Z,39.60
2018-12-24T04:53:15.308Z,44.70
2018-12-24T04:55:47.615Z,37.50
2018-12-24T04:58:19.998Z,39.17
2018-12-24T05:00:52.335Z,39.83
2018-12-24T05:03:24.722Z,38.90
2018-12-24T05:05:57.017Z,40.13
2018-12-24T05:08:29.706Z,38.47
2018-12-24T05:11:21.039Z,35.53
2018-12-24T05:14:13.175Z,38.17
2018-12-24T05:16:45.449Z,45.07
2018-12-24T05:19:36.540Z,41.73
2018-12-24T05:25:28.249Z,34.53
2018-12-24T05:28:12.733Z,39.83
2018-12-24T05:30:45.064Z,43.20
2018-12-24T05:33:36.802Z,38.27
2018-12-24T05:36:09.113Z,42.53
2018-12-24T05:42:18.376Z,38.40
2018-12-24T05:44:51.111Z,40.17
2018-12-24T05:47:23.726Z,37.13
2018-12-24T05:52:59.256Z,38.47
2018-12-24T05:55:50.945Z,39.93
2018-12-24T05:58:23.686Z,38.47
2018-12-24T06:00:56.056Z,33.60
2018-12-24T06:03:28.397Z,31.83
2018-12-24T06:06:00.778Z,32.03
2018-12-24T06:08:33.534Z,31.33
2018-12-24T06:11:05.912Z,32.43
2018-12-24T06:13:38.203Z,34.13
2018-12-24T06:16:11.546Z,31.00
2018-12-24T06:18:43.903Z,34.50
2018-12-24T06:21:16.175Z,29.10
2018-12-24T06:23:48.539Z,35.60
2018-12-24T06:26:33.842Z,31.33
2018-12-24T06:29:06.233Z,28.47
2018-12-24T06:31:38.540Z,30.13
2018-12-24T06:34:11.310Z,30.17
2018-12-24T06:36:43.591Z,27.33
2018-12-24T06:39:15.904Z,29.80
2018-12-24T06:41:48.178Z,26.67
2018-12-24T06:44:20.510Z,27.30
2018-12-24T06:46:52.775Z,28.97
2018-12-24T06:49:25.107Z,25.33
2018-12-24T06:51:57.799Z,34.87
2018-12-24T06:57:47.176Z,29.73
2018-12-24T07:00:19.478Z,28.03
2018-12-24T07:02:54.350Z,28.07
2018-12-24T07:05:46.120Z,29.80
2018-12-24T07:08:18.840Z,29.73
2018-12-24T07:10:51.205Z,30.53
2018-12-24T07:13:23.853Z,28.40
2018-12-24T07:15:56.159Z,29.70
2018-12-24T07:18:28.431Z,32.60
2018-12-24T07:21:03.600Z,31.40
2018-12-24T07:23:55.306Z,27.33
2018-12-24T07:26:47.032Z,31.77
2018-12-24T07:29:38.676Z,33.03
2018-12-24T07:32:36.294Z,25.73
2018-12-24T07:35:27.980Z,27.63
2018-12-24T07:38:00.463Z,29.93
2018-12-24T07:40:32.763Z,28.53
2018-12-24T07:46:23.125Z,30.13
2018-12-24T07:48:55.592Z,27.40
2018-12-24T07:51:27.862Z,24.77
2018-12-24T07:54:21.080Z,27.70
2018-12-24T07:57:12.733Z,25.07
2018-12-24T08:03:21.138Z,23.70
2018-12-24T08:06:12.790Z,30.90
2018-12-24T08:14:37.131Z,28.67
2018-12-24T08:17:11.233Z,26.43
2018-12-24T08:20:02.938Z,29.60
2018-12-24T08:22:55.008Z,30.10
2018-12-24T08:25:48.955Z,41.50
2018-12-24T08:28:46.553Z,45.67
2018-12-24T08:31:18.881Z,39.43
2018-12-24T08:33:51.196Z,33.20
2018-12-24T08:36:23.818Z,34.50
2018-12-24T08:38:56.161Z,29.27
2018-12-24T08:41:28.470Z,28.10
2018-12-24T08:44:01.187Z,28.87
2018-12-24T08:46:33.578Z,36.63
2018-12-24T08:49:25.029Z,45.97
2018-12-24T08:51:57.373Z,50.30
2018-12-24T08:54:29.642Z,40.03
2018-12-24T08:57:01.905Z,36.73
2018-12-24T08:59:34.234Z,34.40
2018-12-24T09:02:06.500Z,34.63
2018-12-24T09:04:39.124Z,41.20
2018-12-24T09:07:36.034Z,38.13
2018-12-24T09:10:08.308Z,51.43
2018-12-24T09:12:59.794Z,47.07
2018-12-24T09:15:32.122Z,40.80
2018-12-24T09:18:23.097Z,39.63
2018-12-24T09:23:58.754Z,36.33
2018-12-24T09:29:14.503Z,32.13
2018-12-24T09:34:30.375Z,28.20
2018-12-24T09:37:21.415Z,33.73
2018-12-24T09:40:15.238Z,35.40
2018-12-24T09:43:07.000Z,44.80
2018-12-24T09:45:41.040Z,42.20
2018-12-24T09:48:13.303Z,45.55
2018-12-24T09:50:45.626Z,50.78
2018-12-24T09:53:37.331Z,53.38
2018-12-24T09:56:12.422Z,40.67
2018-12-24T09:59:22.467Z,40.03
2018-12-24T10:01:54.862Z,37.00
2018-12-24T10:05:04.788Z,30.80
2018-12-24T10:07:56.514Z,30.23
2018-12-24T10:13:32.192Z,32.23
2018-12-24T10:16:04.517Z,33.45
2018-12-24T10:18:36.878Z,28.17
2018-12-24T10:25:04.298Z,26.25
2018-12-24T10:27:38.525Z,23.32
2018-12-24T10:30:11.236Z,29.82
2018-12-24T10:32:43.529Z,34.00
2018-12-24T10:35:15.843Z,31.57
2018-12-24T10:37:48.110Z,25.60
2018-12-24T10:43:40.276Z,23.80
2018-12-24T10:46:50.825Z,29.25
2018-12-24T10:49:23.139Z,32.88
2018-12-24T10:51:55.479Z,30.80
2018-12-24T10:54:28.118Z,29.27
2018-12-24T10:57:20.187Z,26.25
2018-12-24T11:00:12.720Z,27.30
2018-12-24T11:02:45.138Z,25.80
2018-12-24T11:05:17.541Z,28.23
2018-12-24T11:10:33.726Z,23.52
2018-12-24T11:13:06.119Z,26.27
2018-12-24T11:15:38.516Z,23.42
2018-12-24T11:18:10.881Z,26.65
2018-12-24T11:21:01.934Z,25.92
2018-12-24T11:26:37.376Z,29.00
2018-12-24T11:29:29.395Z,30.65
2018-12-24T11:32:02.462Z,30.15
2018-12-24T11:34:35.267Z,32.25
2018-12-24T11:37:07.767Z,35.92
2018-12-24T11:39:40.295Z,37.17
2018-12-24T11:42:12.630Z,35.68
2018-12-24T11:44:44.963Z,32.73
2018-12-24T11:47:17.262Z,32.03
2018-12-24T11:49:49.600Z,29.10
2018-12-24T11:55:36.768Z,26.33
2018-12-24T11:58:50.640Z,32.00
2018-12-24T12:01:34.695Z,51.88
2018-12-24T12:04:26.400Z,24.70
2018-12-24T12:07:18.092Z,21.57
2018-12-24T12:10:09.949Z,26.60
2018-12-24T12:12:42.299Z,24.55
2018-12-24T12:15:14.766Z,24.02
2018-12-24T12:17:47.137Z,22.05
2018-12-24T12:20:19.520Z,21.35
2018-12-24T12:22:51.948Z,25.80
2018-12-24T12:25:38.502Z,21.52
2018-12-24T12:28:36.885Z,23.42
2018-12-24T12:43:28.923Z,24.65
2018-12-24T13:12:49.477Z,27.55
2018-12-24T13:43:09.367Z,32.70
2018-12-24T14:25:22.213Z,19.50
2018-12-24T15:34:48.353Z,17.27
2018-12-24T15:37:20.696Z,13.08
2018-12-24T15:39:53.427Z,14.38
2018-12-24T15:42:25.796Z,17.42
2018-12-24T15:44:58.145Z,15.50
2018-12-24T15:47:30.497Z,18.00
2018-12-24T15:50:02.825Z,16.15
2018-12-24T15:52:47.934Z,17.65
2018-12-24T15:58:42.960Z,34.53
2018-12-24T16:14:15.263Z,27.85
2018-12-24T16:59:08.639Z,23.27
2018-12-24T17:01:41.482Z,24.47
2018-12-24T17:04:13.672Z,22.95
2018-12-24T17:06:45.983Z,20.95
2018-12-24T17:09:18.127Z,25.43
2018-12-24T17:11:52.252Z,37.88
2018-12-24T17:14:24.524Z,28.20
2018-12-24T17:16:56.584Z,44.27
2018-12-24T17:19:28.752Z,36.53
2018-12-24T17:22:00.980Z,31.85
2018-12-24T17:24:34.191Z,39.67
2018-12-24T17:27:06.126Z,43.87
2018-12-24T17:29:38.151Z,278.32
2018-12-24T17:32:10.307Z,75.22
2018-12-24T17:34:42.365Z,67.30
2018-12-24T17:37:14.598Z,86.92
2018-12-24T17:39:46.710Z,37.17
2018-12-24T17:42:18.930Z,30.68
2018-12-24T17:44:50.941Z,43.50
2018-12-24T17:47:23.369Z,46.58
2018-12-24T17:49:55.540Z,29.00
2018-12-24T17:52:27.602Z,29.98
2018-12-24T17:54:59.514Z,27.15
2018-12-24T17:57:34.084Z,28.00
2018-12-24T18:00:09.189Z,38.53
2018-12-24T18:02:41.121Z,37.55
2018-12-24T18:05:13.018Z,41.05
2018-12-24T18:07:44.924Z,56.53
2018-12-24T18:10:17.203Z,48.38
2018-12-24T18:12:49.289Z,47.60
2018-12-24T18:15:21.123Z,44.85
2018-12-24T18:17:53.020Z,46.08
2018-12-24T18:20:25.498Z,52.67
2018-12-24T18:22:57.345Z,63.90
2018-12-24T18:25:29.267Z,58.55
2018-12-24T18:28:01.135Z,58.87
2018-12-24T18:30:33.521Z,56.58
2018-12-24T18:33:05.588Z,51.25
2018-12-24T18:35:37.433Z,49.13
2018-12-24T18:38:09.517Z,53.60
2018-12-24T18:40:41.989Z,49.30
2018-12-24T18:43:13.885Z,66.10
2018-12-24T18:45:46.211Z,68.12
2018-12-24T18:48:18.137Z,64.60
2018-12-24T18:50:52.212Z,50.20
2018-12-24T18:53:24.272Z,42.78
2018-12-24T18:55:56.601Z,43.35
2018-12-24T18:58:28.590Z,46.18
2018-12-24T19:01:01.010Z,57.10
2018-12-24T19:03:32.930Z,107.27
2018-12-24T19:06:04.854Z,115.77
2018-12-24T19:08:37.057Z,119.67
2018-12-24T19:11:11.364Z,95.67
2018-12-24T19:13:44.512Z,96.60
2018-12-24T19:16:16.542Z,79.12
2018-12-24T19:18:48.945Z,82.45
2018-12-24T19:21:20.921Z,102.65
2018-12-24T19:23:53.018Z,79.37
2018-12-24T19:26:24.826Z,94.07
2018-12-24T19:28:56.815Z,93.12
2018-12-24T19:31:28.675Z,89.87
2018-12-24T19:34:01.211Z,134.45
2018-12-24T19:36:37.562Z,118.17
2018-12-24T19:39:09.535Z,112.30
2018-12-24T19:41:41.392Z,107.75
2018-12-24T19:44:16.018Z,98.33
2018-12-24T19:46:47.905Z,101.20
2018-12-24T19:49:19.788Z,95.15
2018-12-24T19:51:51.687Z,196.05
2018-12-24T19:54:23.624Z,186.43
2018-12-24T19:56:55.467Z,144.30
2018-12-24T19:59:27.395Z,117.65
2018-12-24T20:01:59.312Z,112.72
2018-12-24T20:04:31.223Z,112.00
2018-12-24T20:07:03.207Z,112.35
2018-12-24T20:09:35.052Z,117.77
2018-12-24T20:12:08.105Z,95.90
2018-12-24T20:14:40.864Z,91.85
2018-12-24T20:17:12.840Z,87.53
2018-12-24T20:19:44.724Z,79.75
2018-12-24T20:22:16.620Z,77.40
2018-12-24T20:24:48.502Z,77.58
2018-12-24T20:27:20.385Z,75.52
2018-12-24T20:29:52.231Z,74.53
2018-12-24T20:32:24.117Z,74.53
2018-12-24T20:34:56.019Z,74.50
2018-12-24T20:37:28.334Z,79.50
2018-12-24T20:40:00.550Z,71.15
2018-12-24T20:42:32.445Z,72.00
2018-12-24T20:45:04.464Z,75.77
2018-12-24T20:47:36.349Z,71.97
2018-12-24T20:50:08.247Z,70.25
2018-12-24T20:52:40.164Z,78.10
2018-12-24T20:55:13.700Z,78.80
2018-12-24T20:57:45.547Z,83.43
2018-12-24T21:00:17.483Z,76.53
2018-12-24T21:02:53.008Z,82.80
2018-12-24T21:05:24.947Z,69.55
2018-12-24T21:07:57.268Z,68.60
2018-12-24T21:10:29.329Z,71.05
2018-12-24T21:13:01.331Z,65.85
2018-12-24T21:15:33.254Z,70.10
2018-12-24T21:18:05.689Z,72.53
2018-12-24T21:20:37.508Z,75.45
2018-12-24T21:23:09.371Z,83.55
2018-12-24T21:25:41.277Z,91.23
2018-12-24T21:28:13.891Z,97.70
2018-12-24T21:30:45.798Z,94.97
2018-12-24T21:33:17.687Z,100.93
2018-12-24T21:35:49.593Z,104.03
2018-12-24T21:38:21.447Z,104.70
2018-12-24T21:40:53.347Z,101.82
2018-12-24T21:43:25.256Z,101.62
2018-12-24T21:45:57.298Z,98.80
2018-12-24T21:48:32.143Z,74.07
2018-12-24T21:51:04.066Z,72.67
2018-12-24T21:53:36.013Z,87.57
2018-12-24T21:56:07.894Z,82.40
2018-12-24T21:58:39.737Z,78.73
2018-12-24T22:01:11.625Z,86.80
2018-12-24T22:03:43.554Z,97.27
2018-12-24T22:06:15.449Z,152.23
2018-12-24T22:08:47.374Z,170.63
2018-12-24T22:11:19.346Z,90.23
2018-12-24T22:13:51.234Z,82.20
2018-12-24T22:16:23.088Z,76.47
2018-12-24T22:18:55.034Z,73.22
2018-12-24T22:21:26.983Z,80.00
2018-12-24T22:23:58.846Z,77.17
2018-12-24T22:26:30.768Z,71.93
2018-12-24T22:29:02.680Z,78.97
2018-12-24T22:31:34.566Z,74.35
2018-12-24T22:34:06.467Z,94.97
2018-12-24T22:36:41.520Z,103.33
2018-12-24T22:39:13.422Z,89.27
2018-12-24T22:41:45.261Z,108.90
2018-12-24T22:44:17.262Z,100.63
2018-12-24T22:46:50.520Z,111.47
2018-12-24T22:49:22.434Z,126.60
2018-12-24T22:51:54.494Z,117.03
2018-12-24T22:54:26.333Z,121.43
2018-12-24T22:56:58.611Z,121.03
2018-12-24T22:59:30.588Z,126.80
2018-12-24T23:02:02.835Z,154.27
2018-12-24T23:04:36.081Z,148.87
2018-12-24T23:07:07.922Z,146.13
2018-12-24T23:09:39.822Z,136.17
2018-12-24T23:12:12.851Z,139.37
2018-12-24T23:14:45.765Z,156.47
2018-12-24T23:17:17.716Z,135.40
2018-12-24T23:19:49.892Z,137.10
2018-12-24T23:22:21.788Z,140.57
2018-12-24T23:24:56.415Z,139.57
2018-12-24T23:27:28.415Z,127.10
2018-12-24T23:30:01.491Z,125.07
2018-12-24T23:32:34.015Z,112.87
2018-12-24T23:35:06.117Z,100.93
2018-12-24T23:37:37.984Z,106.17
2018-12-24T23:40:09.837Z,90.27
2018-12-24T23:42:41.748Z,91.73
2018-12-24T23:45:14.242Z,82.53
2018-12-24T23:47:46.142Z,77.50
2018-12-24T23:50:18.147Z,90.47
2018-12-24T23:52:51.707Z,90.30
2018-12-24T23:55:23.592Z,85.60
2018-12-24T23:57:55.498Z,75.00
